sensor_id;sensor_type;location;lat;lon;timestamp;P1;durP1;ratioP1;P2;durP2;ratioP2
59770;SDS011;45649;53.014;6.600;2023-04-09T00:02:16;58.83;;;45.03;;
59770;SDS011;45649;53.014;6.600;2023-04-09T00:04:42;61.03;;;42.63;;
59770;SDS011;45649;53.014;6.600;2023-04-09T00:07:09;59.07;;;43.00;;
59770;SDS011;45649;53.014;6.600;2023-04-09T00:09:35;61.87;;;43.30;;
59770;SDS011;45649;53.014;6.600;2023-04-09T00:12:01;59.77;;;41.97;;
59770;SDS011;45649;53.014;6.600;2023-04-09T00:14:27;55.70;;;39.83;;
59770;SDS011;45649;53.014;6.600;2023-04-09T00:16:53;61.10;;;42.60;;
59770;SDS011;45649;53.014;6.600;2023-04-09T00:19:20;55.40;;;40.10;;
59770;SDS011;45649;53.014;6.600;2023-04-09T00:21:46;61.23;;;42.10;;
59770;SDS011;45649;53.014;6.600;2023-04-09T00:24:12;61.17;;;44.30;;
59770;SDS011;45649;53.014;6.600;2023-04-09T00:26:39;56.43;;;40.97;;
59770;SDS011;45649;53.014;6.600;2023-04-09T00:29:05;61.07;;;43.57;;
59770;SDS011;45649;53.014;6.600;2023-04-09T00:31:31;57.60;;;41.80;;
59770;SDS011;45649;53.014;6.600;2023-04-09T00:33:57;60.43;;;42.30;;
59770;SDS011;45649;53.014;6.600;2023-04-09T00:36:23;60.40;;;40.40;;
59770;SDS011;45649;53.014;6.600;2023-04-09T00:38:50;58.90;;;42.40;;
59770;SDS011;45649;53.014;6.600;2023-04-09T00:41:17;60.63;;;42.03;;
59770;SDS011;45649;53.014;6.600;2023-04-09T00:43:44;54.33;;;40.23;;
59770;SDS011;45649;53.014;6.600;2023-04-09T00:46:10;54.57;;;39.13;;
59770;SDS011;45649;53.014;6.600;2023-04-09T00:48:36;51.57;;;36.77;;
59770;SDS011;45649;53.014;6.600;2023-04-09T00:51:03;55.87;;;39.63;;
59770;SDS011;45649;53.014;6.600;2023-04-09T00:53:29;50.33;;;36.43;;
59770;SDS011;45649;53.014;6.600;2023-04-09T00:55:55;50.90;;;36.83;;
59770;SDS011;45649;53.014;6.600;2023-04-09T00:58:21;52.03;;;36.27;;
59770;SDS011;45649;53.014;6.600;2023-04-09T01:00:47;45.43;;;33.20;;
59770;SDS011;45649;53.014;6.600;2023-04-09T01:03:13;48.73;;;34.17;;
59770;SDS011;45649;53.014;6.600;2023-04-09T01:05:45;48.57;;;32.40;;
59770;SDS011;45649;53.014;6.600;2023-04-09T01:13:48;38.67;;;28.27;;
59770;SDS011;45649;53.014;6.600;2023-04-09T01:16:16;39.80;;;28.70;;
59770;SDS011;45649;53.014;6.600;2023-04-09T01:18:57;38.63;;;29.27;;
59770;SDS011;45649;53.014;6.600;2023-04-09T01:21:25;36.13;;;27.97;;
59770;SDS011;45649;53.014;6.600;2023-04-09T01:29:17;41.03;;;28.30;;
59770;SDS011;45649;53.014;6.600;2023-04-09T01:31:44;39.00;;;29.63;;
59770;SDS011;45649;53.014;6.600;2023-04-09T01:34:11;39.30;;;29.60;;
59770;SDS011;45649;53.014;6.600;2023-04-09T01:36:38;35.17;;;28.30;;
59770;SDS011;45649;53.014;6.600;2023-04-09T01:39:05;37.97;;;27.97;;
59770;SDS011;45649;53.014;6.600;2023-04-09T01:41:31;34.53;;;26.77;;
59770;SDS011;45649;53.014;6.600;2023-04-09T01:43:58;43.13;;;28.67;;
59770;SDS011;45649;53.014;6.600;2023-04-09T01:46:25;39.70;;;29.57;;
59770;SDS011;45649;53.014;6.600;2023-04-09T01:48:51;38.70;;;28.97;;
59770;SDS011;45649;53.014;6.600;2023-04-09T01:51:18;34.53;;;26.80;;
59770;SDS011;45649;53.014;6.600;2023-04-09T01:53:44;34.97;;;26.93;;
59770;SDS011;45649;53.014;6.600;2023-04-09T01:56:10;37.03;;;28.40;;
59770;SDS011;45649;53.014;6.600;2023-04-09T01:58:37;33.67;;;26.00;;
59770;SDS011;45649;53.014;6.600;2023-04-09T02:03:40;35.80;;;26.70;;
59770;SDS011;45649;53.014;6.600;2023-04-09T02:06:13;33.67;;;26.87;;
59770;SDS011;45649;53.014;6.600;2023-04-09T02:08:42;32.53;;;25.43;;
59770;SDS011;45649;53.014;6.600;2023-04-09T02:11:09;37.00;;;26.83;;
59770;SDS011;45649;53.014;6.600;2023-04-09T02:13:36;34.07;;;25.93;;
59770;SDS011;45649;53.014;6.600;2023-04-09T02:16:02;35.57;;;27.07;;
59770;SDS011;45649;53.014;6.600;2023-04-09T02:18:30;34.87;;;26.57;;
59770;SDS011;45649;53.014;6.600;2023-04-09T02:20:56;35.37;;;27.83;;
59770;SDS011;45649;53.014;6.600;2023-04-09T02:23:23;37.03;;;27.87;;
59770;SDS011;45649;53.014;6.600;2023-04-09T02:25:50;36.33;;;27.90;;
59770;SDS011;45649;53.014;6.600;2023-04-09T02:28:16;35.47;;;28.00;;
59770;SDS011;45649;53.014;6.600;2023-04-09T02:30:43;32.33;;;26.30;;
59770;SDS011;45649;53.014;6.600;2023-04-09T02:33:09;34.23;;;26.80;;
59770;SDS011;45649;53.014;6.600;2023-04-09T02:35:35;37.50;;;27.60;;
59770;SDS011;45649;53.014;6.600;2023-04-09T02:38:01;37.13;;;28.47;;
59770;SDS011;45649;53.014;6.600;2023-04-09T02:40:27;35.10;;;27.17;;
59770;SDS011;45649;53.014;6.600;2023-04-09T02:42:53;36.33;;;26.93;;
59770;SDS011;45649;53.014;6.600;2023-04-09T02:45:19;37.23;;;29.67;;
59770;SDS011;45649;53.014;6.600;2023-04-09T02:47:46;39.23;;;29.50;;
59770;SDS011;45649;53.014;6.600;2023-04-09T02:50:12;37.43;;;27.97;;
59770;SDS011;45649;53.014;6.600;2023-04-09T02:52:38;38.43;;;28.00;;
59770;SDS011;45649;53.014;6.600;2023-04-09T02:55:04;36.93;;;28.67;;
59770;SDS011;45649;53.014;6.600;2023-04-09T02:57:30;38.43;;;27.37;;
59770;SDS011;45649;53.014;6.600;2023-04-09T02:59:57;37.90;;;29.20;;
59770;SDS011;45649;53.014;6.600;2023-04-09T03:02:23;32.07;;;25.20;;
59770;SDS011;45649;53.014;6.600;2023-04-09T03:04:49;36.23;;;28.40;;
59770;SDS011;45649;53.014;6.600;2023-04-09T03:07:17;35.17;;;28.07;;
59770;SDS011;45649;53.014;6.600;2023-04-09T03:09:43;34.87;;;27.40;;
59770;SDS011;45649;53.014;6.600;2023-04-09T03:12:09;39.73;;;29.10;;
59770;SDS011;45649;53.014;6.600;2023-04-09T03:14:35;36.20;;;27.70;;
59770;SDS011;45649;53.014;6.600;2023-04-09T03:17:01;38.13;;;28.20;;
59770;SDS011;45649;53.014;6.600;2023-04-09T03:19:27;38.30;;;28.30;;
59770;SDS011;45649;53.014;6.600;2023-04-09T03:21:53;37.37;;;29.50;;
59770;SDS011;45649;53.014;6.600;2023-04-09T03:24:19;36.60;;;28.60;;
59770;SDS011;45649;53.014;6.600;2023-04-09T03:26:45;38.57;;;28.63;;
59770;SDS011;45649;53.014;6.600;2023-04-09T03:29:11;37.23;;;28.73;;
59770;SDS011;45649;53.014;6.600;2023-04-09T03:31:37;38.03;;;29.13;;
59770;SDS011;45649;53.014;6.600;2023-04-09T03:34:03;39.93;;;28.27;;
59770;SDS011;45649;53.014;6.600;2023-04-09T03:36:30;37.77;;;29.27;;
59770;SDS011;45649;53.014;6.600;2023-04-09T03:38:56;39.63;;;28.83;;
59770;SDS011;45649;53.014;6.600;2023-04-09T03:41:24;43.63;;;29.97;;
59770;SDS011;45649;53.014;6.600;2023-04-09T03:43:51;37.67;;;27.53;;
59770;SDS011;45649;53.014;6.600;2023-04-09T03:46:17;37.27;;;28.17;;
59770;SDS011;45649;53.014;6.600;2023-04-09T03:48:43;41.63;;;30.63;;
59770;SDS011;45649;53.014;6.600;2023-04-09T03:51:13;36.23;;;28.57;;
59770;SDS011;45649;53.014;6.600;2023-04-09T03:53:40;40.33;;;29.53;;
59770;SDS011;45649;53.014;6.600;2023-04-09T03:56:06;37.70;;;28.47;;
59770;SDS011;45649;53.014;6.600;2023-04-09T03:58:32;39.57;;;28.67;;
59770;SDS011;45649;53.014;6.600;2023-04-09T04:00:59;42.77;;;30.53;;
59770;SDS011;45649;53.014;6.600;2023-04-09T04:03:25;40.47;;;30.63;;
59770;SDS011;45649;53.014;6.600;2023-04-09T04:05:51;42.17;;;29.90;;
59770;SDS011;45649;53.014;6.600;2023-04-09T04:08:17;40.53;;;29.07;;
59770;SDS011;45649;53.014;6.600;2023-04-09T04:10:43;43.33;;;30.03;;
59770;SDS011;45649;53.014;6.600;2023-04-09T04:13:09;44.70;;;30.57;;
59770;SDS011;45649;53.014;6.600;2023-04-09T04:15:39;38.23;;;29.27;;
59770;SDS011;45649;53.014;6.600;2023-04-09T04:18:06;39.47;;;28.63;;
59770;SDS011;45649;53.014;6.600;2023-04-09T04:20:32;42.70;;;29.23;;
59770;SDS011;45649;53.014;6.600;2023-04-09T04:22:58;39.40;;;29.30;;
59770;SDS011;45649;53.014;6.600;2023-04-09T04:25:24;41.77;;;29.67;;
59770;SDS011;45649;53.014;6.600;2023-04-09T04:27:50;40.67;;;29.50;;
59770;SDS011;45649;53.014;6.600;2023-04-09T04:30:16;40.40;;;28.87;;
59770;SDS011;45649;53.014;6.600;2023-04-09T04:32:43;39.00;;;30.03;;
59770;SDS011;45649;53.014;6.600;2023-04-09T04:35:09;38.17;;;30.07;;
59770;SDS011;45649;53.014;6.600;2023-04-09T04:37:35;42.27;;;30.73;;
59770;SDS011;45649;53.014;6.600;2023-04-09T04:40:01;41.17;;;29.20;;
59770;SDS011;45649;53.014;6.600;2023-04-09T04:42:28;41.80;;;29.47;;
59770;SDS011;45649;53.014;6.600;2023-04-09T04:44:54;45.17;;;31.97;;
59770;SDS011;45649;53.014;6.600;2023-04-09T04:47:20;42.30;;;30.37;;
59770;SDS011;45649;53.014;6.600;2023-04-09T04:49:46;41.43;;;30.37;;
59770;SDS011;45649;53.014;6.600;2023-04-09T04:52:12;35.07;;;26.83;;
59770;SDS011;45649;53.014;6.600;2023-04-09T04:54:38;32.63;;;25.83;;
59770;SDS011;45649;53.014;6.600;2023-04-09T04:57:05;32.23;;;26.13;;
59770;SDS011;45649;53.014;6.600;2023-04-09T04:59:31;34.10;;;27.07;;
59770;SDS011;45649;53.014;6.600;2023-04-09T05:01:57;29.93;;;24.37;;
59770;SDS011;45649;53.014;6.600;2023-04-09T05:04:23;33.07;;;25.33;;
59770;SDS011;45649;53.014;6.600;2023-04-09T05:06:49;31.97;;;23.47;;
59770;SDS011;45649;53.014;6.600;2023-04-09T05:09:15;28.60;;;23.17;;
59770;SDS011;45649;53.014;6.600;2023-04-09T05:11:41;31.30;;;23.63;;
59770;SDS011;45649;53.014;6.600;2023-04-09T05:14:07;30.10;;;24.07;;
59770;SDS011;45649;53.014;6.600;2023-04-09T05:16:33;29.67;;;24.37;;
59770;SDS011;45649;53.014;6.600;2023-04-09T05:19:00;31.80;;;25.70;;
59770;SDS011;45649;53.014;6.600;2023-04-09T05:21:26;32.87;;;25.40;;
59770;SDS011;45649;53.014;6.600;2023-04-09T05:23:52;34.87;;;26.80;;
59770;SDS011;45649;53.014;6.600;2023-04-09T05:26:18;36.20;;;26.67;;
59770;SDS011;45649;53.014;6.600;2023-04-09T05:28:45;33.77;;;26.60;;
59770;SDS011;45649;53.014;6.600;2023-04-09T05:31:11;35.20;;;26.37;;
59770;SDS011;45649;53.014;6.600;2023-04-09T05:33:39;37.40;;;28.17;;
59770;SDS011;45649;53.014;6.600;2023-04-09T05:36:06;37.17;;;27.73;;
59770;SDS011;45649;53.014;6.600;2023-04-09T05:38:32;35.47;;;27.67;;
59770;SDS011;45649;53.014;6.600;2023-04-09T05:40:58;35.40;;;27.77;;
59770;SDS011;45649;53.014;6.600;2023-04-09T05:43:24;38.93;;;29.87;;
59770;SDS011;45649;53.014;6.600;2023-04-09T05:45:51;36.17;;;29.07;;
59770;SDS011;45649;53.014;6.600;2023-04-09T05:48:17;35.63;;;26.17;;
59770;SDS011;45649;53.014;6.600;2023-04-09T05:50:50;37.07;;;27.17;;
59770;SDS011;45649;53.014;6.600;2023-04-09T05:53:20;31.77;;;25.30;;
59770;SDS011;45649;53.014;6.600;2023-04-09T05:55:46;31.00;;;25.07;;
59770;SDS011;45649;53.014;6.600;2023-04-09T05:58:15;30.40;;;24.73;;
59770;SDS011;45649;53.014;6.600;2023-04-09T06:00:42;31.03;;;24.23;;
59770;SDS011;45649;53.014;6.600;2023-04-09T06:03:08;33.30;;;25.63;;
59770;SDS011;45649;53.014;6.600;2023-04-09T06:05:35;32.67;;;26.33;;
59770;SDS011;45649;53.014;6.600;2023-04-09T06:08:01;35.47;;;27.13;;
59770;SDS011;45649;53.014;6.600;2023-04-09T06:10:27;34.43;;;26.73;;
59770;SDS011;45649;53.014;6.600;2023-04-09T06:12:53;35.67;;;26.90;;
59770;SDS011;45649;53.014;6.600;2023-04-09T06:15:19;36.73;;;29.27;;
59770;SDS011;45649;53.014;6.600;2023-04-09T06:17:46;43.23;;;31.63;;
59770;SDS011;45649;53.014;6.600;2023-04-09T06:20:12;37.90;;;30.60;;
59770;SDS011;45649;53.014;6.600;2023-04-09T06:22:38;40.20;;;29.83;;
59770;SDS011;45649;53.014;6.600;2023-04-09T06:25:04;32.53;;;25.17;;
59770;SDS011;45649;53.014;6.600;2023-04-09T06:27:31;36.90;;;27.97;;
59770;SDS011;45649;53.014;6.600;2023-04-09T06:29:57;37.27;;;29.07;;
59770;SDS011;45649;53.014;6.600;2023-04-09T06:32:23;36.70;;;29.03;;
59770;SDS011;45649;53.014;6.600;2023-04-09T06:34:49;32.47;;;26.73;;
59770;SDS011;45649;53.014;6.600;2023-04-09T06:37:15;34.90;;;26.23;;
59770;SDS011;45649;53.014;6.600;2023-04-09T06:39:41;33.90;;;27.00;;
59770;SDS011;45649;53.014;6.600;2023-04-09T06:42:07;36.30;;;27.03;;
59770;SDS011;45649;53.014;6.600;2023-04-09T06:44:33;33.27;;;26.07;;
59770;SDS011;45649;53.014;6.600;2023-04-09T06:47:00;35.43;;;27.00;;
59770;SDS011;45649;53.014;6.600;2023-04-09T06:49:26;33.17;;;25.83;;
59770;SDS011;45649;53.014;6.600;2023-04-09T06:51:52;34.37;;;26.80;;
59770;SDS011;45649;53.014;6.600;2023-04-09T06:54:18;31.90;;;25.27;;
59770;SDS011;45649;53.014;6.600;2023-04-09T06:56:44;34.73;;;26.13;;
59770;SDS011;45649;53.014;6.600;2023-04-09T06:59:11;33.50;;;26.90;;
59770;SDS011;45649;53.014;6.600;2023-04-09T07:01:37;28.30;;;23.23;;
59770;SDS011;45649;53.014;6.600;2023-04-09T07:04:04;33.67;;;25.27;;
59770;SDS011;45649;53.014;6.600;2023-04-09T07:06:30;32.77;;;25.93;;
59770;SDS011;45649;53.014;6.600;2023-04-09T07:08:57;32.53;;;26.30;;
59770;SDS011;45649;53.014;6.600;2023-04-09T07:11:23;36.47;;;28.87;;
59770;SDS011;45649;53.014;6.600;2023-04-09T07:13:49;36.40;;;27.67;;
59770;SDS011;45649;53.014;6.600;2023-04-09T07:16:15;38.53;;;29.43;;
59770;SDS011;45649;53.014;6.600;2023-04-09T07:18:41;42.80;;;33.65;;
59770;SDS011;45649;53.014;6.600;2023-04-09T07:21:07;37.70;;;28.60;;
59770;SDS011;45649;53.014;6.600;2023-04-09T07:23:34;41.77;;;29.73;;
59770;SDS011;45649;53.014;6.600;2023-04-09T07:26:03;40.10;;;30.87;;
59770;SDS011;45649;53.014;6.600;2023-04-09T07:28:29;40.27;;;30.13;;
59770;SDS011;45649;53.014;6.600;2023-04-09T07:30:55;40.90;;;29.47;;
59770;SDS011;45649;53.014;6.600;2023-04-09T07:33:21;46.80;;;33.57;;
59770;SDS011;45649;53.014;6.600;2023-04-09T07:35:47;43.23;;;31.87;;
59770;SDS011;45649;53.014;6.600;2023-04-09T07:38:13;45.03;;;33.60;;
59770;SDS011;45649;53.014;6.600;2023-04-09T07:40:40;47.07;;;33.77;;
59770;SDS011;45649;53.014;6.600;2023-04-09T07:43:06;46.37;;;33.37;;
59770;SDS011;45649;53.014;6.600;2023-04-09T07:45:32;46.33;;;31.73;;
59770;SDS011;45649;53.014;6.600;2023-04-09T07:47:58;46.67;;;33.20;;
59770;SDS011;45649;53.014;6.600;2023-04-09T07:50:24;44.27;;;32.20;;
59770;SDS011;45649;53.014;6.600;2023-04-09T07:52:51;43.00;;;31.53;;
59770;SDS011;45649;53.014;6.600;2023-04-09T07:55:17;45.07;;;37.27;;
59770;SDS011;45649;53.014;6.600;2023-04-09T07:57:44;44.13;;;33.03;;
59770;SDS011;45649;53.014;6.600;2023-04-09T08:00:10;44.93;;;33.33;;
59770;SDS011;45649;53.014;6.600;2023-04-09T08:02:36;40.17;;;31.63;;
59770;SDS011;45649;53.014;6.600;2023-04-09T08:05:03;44.13;;;32.00;;
59770;SDS011;45649;53.014;6.600;2023-04-09T08:07:30;40.20;;;31.30;;
59770;SDS011;45649;53.014;6.600;2023-04-09T08:09:56;45.47;;;33.30;;
59770;SDS011;45649;53.014;6.600;2023-04-09T08:12:22;44.80;;;32.93;;
59770;SDS011;45649;53.014;6.600;2023-04-09T08:14:48;43.10;;;32.63;;
59770;SDS011;45649;53.014;6.600;2023-04-09T08:17:14;42.57;;;32.10;;
59770;SDS011;45649;53.014;6.600;2023-04-09T08:19:40;38.60;;;30.73;;
59770;SDS011;45649;53.014;6.600;2023-04-09T08:22:07;38.90;;;30.87;;
59770;SDS011;45649;53.014;6.600;2023-04-09T08:24:33;41.43;;;32.10;;
59770;SDS011;45649;53.014;6.600;2023-04-09T08:26:59;43.90;;;33.10;;
59770;SDS011;45649;53.014;6.600;2023-04-09T08:29:26;40.97;;;31.77;;
59770;SDS011;45649;53.014;6.600;2023-04-09T08:31:52;36.80;;;29.20;;
59770;SDS011;45649;53.014;6.600;2023-04-09T08:34:18;36.50;;;28.77;;
59770;SDS011;45649;53.014;6.600;2023-04-09T08:36:46;38.77;;;30.23;;
59770;SDS011;45649;53.014;6.600;2023-04-09T08:39:14;39.73;;;30.33;;
59770;SDS011;45649;53.014;6.600;2023-04-09T08:41:41;38.67;;;29.40;;
59770;SDS011;45649;53.014;6.600;2023-04-09T08:44:08;37.00;;;29.40;;
59770;SDS011;45649;53.014;6.600;2023-04-09T08:46:35;37.90;;;30.03;;
59770;SDS011;45649;53.014;6.600;2023-04-09T08:49:01;42.07;;;29.90;;
59770;SDS011;45649;53.014;6.600;2023-04-09T08:51:27;38.77;;;29.97;;
59770;SDS011;45649;53.014;6.600;2023-04-09T08:53:57;37.77;;;29.63;;
59770;SDS011;45649;53.014;6.600;2023-04-09T08:56:23;40.33;;;30.53;;
59770;SDS011;45649;53.014;6.600;2023-04-09T08:58:50;35.57;;;27.50;;
59770;SDS011;45649;53.014;6.600;2023-04-09T09:01:26;36.60;;;27.80;;
59770;SDS011;45649;53.014;6.600;2023-04-09T09:04:00;36.67;;;28.47;;
59770;SDS011;45649;53.014;6.600;2023-04-09T09:06:28;36.27;;;28.83;;
59770;SDS011;45649;53.014;6.600;2023-04-09T09:11:26;36.73;;;28.63;;
59770;SDS011;45649;53.014;6.600;2023-04-09T09:16:24;35.93;;;27.90;;
59770;SDS011;45649;53.014;6.600;2023-04-09T09:18:51;35.93;;;27.70;;
59770;SDS011;45649;53.014;6.600;2023-04-09T09:21:17;36.90;;;28.60;;
59770;SDS011;45649;53.014;6.600;2023-04-09T09:23:43;36.43;;;28.33;;
59770;SDS011;45649;53.014;6.600;2023-04-09T09:28:45;34.40;;;26.57;;
59770;SDS011;45649;53.014;6.600;2023-04-09T09:31:12;35.63;;;27.20;;
59770;SDS011;45649;53.014;6.600;2023-04-09T09:33:38;30.90;;;25.57;;
59770;SDS011;45649;53.014;6.600;2023-04-09T09:36:04;33.43;;;27.67;;
59770;SDS011;45649;53.014;6.600;2023-04-09T09:38:33;37.27;;;28.70;;
59770;SDS011;45649;53.014;6.600;2023-04-09T09:41:05;34.87;;;27.33;;
59770;SDS011;45649;53.014;6.600;2023-04-09T09:43:41;36.40;;;28.47;;
59770;SDS011;45649;53.014;6.600;2023-04-09T09:46:07;31.93;;;26.07;;
59770;SDS011;45649;53.014;6.600;2023-04-09T09:48:33;35.67;;;28.80;;
59770;SDS011;45649;53.014;6.600;2023-04-09T09:50:59;34.23;;;26.63;;
59770;SDS011;45649;53.014;6.600;2023-04-09T09:53:27;35.07;;;29.30;;
59770;SDS011;45649;53.014;6.600;2023-04-09T09:55:55;34.20;;;28.23;;
59770;SDS011;45649;53.014;6.600;2023-04-09T09:58:23;36.47;;;28.73;;
59770;SDS011;45649;53.014;6.600;2023-04-09T10:00:51;33.47;;;26.00;;
59770;SDS011;45649;53.014;6.600;2023-04-09T10:03:24;33.33;;;26.47;;
59770;SDS011;45649;53.014;6.600;2023-04-09T10:05:51;36.53;;;28.93;;
59770;SDS011;45649;53.014;6.600;2023-04-09T10:08:18;34.17;;;27.67;;
59770;SDS011;45649;53.014;6.600;2023-04-09T10:10:44;33.87;;;27.37;;
59770;SDS011;45649;53.014;6.600;2023-04-09T10:13:20;31.83;;;26.10;;
59770;SDS011;45649;53.014;6.600;2023-04-09T10:15:46;35.50;;;28.47;;
59770;SDS011;45649;53.014;6.600;2023-04-09T10:18:13;34.60;;;27.03;;
59770;SDS011;45649;53.014;6.600;2023-04-09T10:20:46;33.08;;;28.30;;
59770;SDS011;45649;53.014;6.600;2023-04-09T10:23:18;30.67;;;26.03;;
59770;SDS011;45649;53.014;6.600;2023-04-09T10:25:46;29.47;;;23.90;;
59770;SDS011;45649;53.014;6.600;2023-04-09T10:28:16;29.23;;;23.57;;
59770;SDS011;45649;53.014;6.600;2023-04-09T10:30:43;27.33;;;23.20;;
59770;SDS011;45649;53.014;6.600;2023-04-09T10:33:11;24.67;;;20.73;;
59770;SDS011;45649;53.014;6.600;2023-04-09T10:35:37;30.67;;;24.10;;
59770;SDS011;45649;53.014;6.600;2023-04-09T10:38:07;30.93;;;24.33;;
59770;SDS011;45649;53.014;6.600;2023-04-09T10:40:34;27.10;;;22.90;;
59770;SDS011;45649;53.014;6.600;2023-04-09T10:43:01;30.08;;;25.10;;
59770;SDS011;45649;53.014;6.600;2023-04-09T10:45:37;27.47;;;23.27;;
59770;SDS011;45649;53.014;6.600;2023-04-09T10:48:04;28.97;;;23.77;;
59770;SDS011;45649;53.014;6.600;2023-04-09T10:50:31;29.23;;;23.40;;
59770;SDS011;45649;53.014;6.600;2023-04-09T10:53:00;30.37;;;23.67;;
59770;SDS011;45649;53.014;6.600;2023-04-09T10:55:36;28.83;;;23.83;;
59770;SDS011;45649;53.014;6.600;2023-04-09T10:58:11;28.60;;;23.57;;
59770;SDS011;45649;53.014;6.600;2023-04-09T11:00:37;29.90;;;25.33;;
59770;SDS011;45649;53.014;6.600;2023-04-09T11:05:34;29.83;;;25.07;;
59770;SDS011;45649;53.014;6.600;2023-04-09T11:08:08;28.07;;;23.23;;
59770;SDS011;45649;53.014;6.600;2023-04-09T11:10:35;29.23;;;23.33;;
59770;SDS011;45649;53.014;6.600;2023-04-09T11:13:02;29.00;;;23.70;;
59770;SDS011;45649;53.014;6.600;2023-04-09T11:15:30;28.00;;;22.87;;
59770;SDS011;45649;53.014;6.600;2023-04-09T11:17:56;27.53;;;23.40;;
59770;SDS011;45649;53.014;6.600;2023-04-09T11:20:23;30.37;;;24.10;;
59770;SDS011;45649;53.014;6.600;2023-04-09T11:22:51;26.97;;;22.63;;
59770;SDS011;45649;53.014;6.600;2023-04-09T11:25:18;31.17;;;25.30;;
59770;SDS011;45649;53.014;6.600;2023-04-09T11:27:44;27.60;;;23.53;;
59770;SDS011;45649;53.014;6.600;2023-04-09T11:30:11;29.43;;;24.93;;
59770;SDS011;45649;53.014;6.600;2023-04-09T11:32:37;29.17;;;24.70;;
59770;SDS011;45649;53.014;6.600;2023-04-09T11:35:03;30.67;;;24.43;;
59770;SDS011;45649;53.014;6.600;2023-04-09T11:37:30;27.87;;;23.23;;
59770;SDS011;45649;53.014;6.600;2023-04-09T11:39:56;26.37;;;22.77;;
59770;SDS011;45649;53.014;6.600;2023-04-09T11:42:23;26.00;;;21.10;;
59770;SDS011;45649;53.014;6.600;2023-04-09T11:44:49;24.83;;;21.40;;
59770;SDS011;45649;53.014;6.600;2023-04-09T11:47:17;26.77;;;23.83;;
59770;SDS011;45649;53.014;6.600;2023-04-09T11:49:44;27.80;;;23.23;;
59770;SDS011;45649;53.014;6.600;2023-04-09T11:52:11;25.83;;;21.70;;
59770;SDS011;45649;53.014;6.600;2023-04-09T11:54:40;27.37;;;21.83;;
59770;SDS011;45649;53.014;6.600;2023-04-09T11:57:06;22.60;;;20.13;;
59770;SDS011;45649;53.014;6.600;2023-04-09T11:59:32;24.93;;;21.10;;
59770;SDS011;45649;53.014;6.600;2023-04-09T12:01:59;26.47;;;22.27;;
59770;SDS011;45649;53.014;6.600;2023-04-09T12:04:25;27.70;;;22.30;;
59770;SDS011;45649;53.014;6.600;2023-04-09T12:06:57;27.17;;;22.57;;
59770;SDS011;45649;53.014;6.600;2023-04-09T12:09:23;25.57;;;22.80;;
59770;SDS011;45649;53.014;6.600;2023-04-09T12:11:49;24.40;;;21.20;;
59770;SDS011;45649;53.014;6.600;2023-04-09T12:14:16;24.30;;;20.97;;
59770;SDS011;45649;53.014;6.600;2023-04-09T12:16:43;23.33;;;20.30;;
59770;SDS011;45649;53.014;6.600;2023-04-09T12:19:10;23.23;;;20.73;;
59770;SDS011;45649;53.014;6.600;2023-04-09T12:24:14;24.47;;;21.00;;
59770;SDS011;45649;53.014;6.600;2023-04-09T12:26:41;23.50;;;20.30;;
59770;SDS011;45649;53.014;6.600;2023-04-09T12:29:07;25.63;;;21.43;;
59770;SDS011;45649;53.014;6.600;2023-04-09T12:31:33;26.63;;;20.57;;
59770;SDS011;45649;53.014;6.600;2023-04-09T12:34:00;21.43;;;18.57;;
59770;SDS011;45649;53.014;6.600;2023-04-09T12:36:26;20.80;;;18.57;;
59770;SDS011;45649;53.014;6.600;2023-04-09T12:38:52;22.33;;;19.13;;
59770;SDS011;45649;53.014;6.600;2023-04-09T12:41:18;24.43;;;20.10;;
59770;SDS011;45649;53.014;6.600;2023-04-09T12:43:44;21.10;;;18.77;;
59770;SDS011;45649;53.014;6.600;2023-04-09T12:46:11;21.27;;;18.97;;
59770;SDS011;45649;53.014;6.600;2023-04-09T12:48:38;23.73;;;18.17;;
59770;SDS011;45649;53.014;6.600;2023-04-09T12:51:04;20.50;;;18.13;;
59770;SDS011;45649;53.014;6.600;2023-04-09T12:53:31;20.00;;;17.37;;
59770;SDS011;45649;53.014;6.600;2023-04-09T12:55:57;21.07;;;18.67;;
59770;SDS011;45649;53.014;6.600;2023-04-09T12:58:23;18.77;;;16.77;;
59770;SDS011;45649;53.014;6.600;2023-04-09T13:00:49;20.67;;;17.27;;
59770;SDS011;45649;53.014;6.600;2023-04-09T13:03:17;18.87;;;16.87;;
59770;SDS011;45649;53.014;6.600;2023-04-09T13:05:43;18.90;;;16.90;;
59770;SDS011;45649;53.014;6.600;2023-04-09T13:08:09;17.53;;;15.53;;
59770;SDS011;45649;53.014;6.600;2023-04-09T13:10:35;18.37;;;16.37;;
59770;SDS011;45649;53.014;6.600;2023-04-09T13:13:01;19.77;;;17.57;;
59770;SDS011;45649;53.014;6.600;2023-04-09T13:15:27;17.70;;;15.83;;
59770;SDS011;45649;53.014;6.600;2023-04-09T13:17:54;18.70;;;16.70;;
59770;SDS011;45649;53.014;6.600;2023-04-09T13:20:20;19.63;;;17.53;;
59770;SDS011;45649;53.014;6.600;2023-04-09T13:22:46;19.33;;;17.33;;
59770;SDS011;45649;53.014;6.600;2023-04-09T13:25:16;18.77;;;16.67;;
59770;SDS011;45649;53.014;6.600;2023-04-09T13:27:42;19.97;;;17.60;;
59770;SDS011;45649;53.014;6.600;2023-04-09T13:30:08;19.57;;;17.47;;
59770;SDS011;45649;53.014;6.600;2023-04-09T13:32:34;20.50;;;17.60;;
59770;SDS011;45649;53.014;6.600;2023-04-09T13:35:01;20.37;;;17.33;;
59770;SDS011;45649;53.014;6.600;2023-04-09T13:37:27;19.40;;;17.30;;
59770;SDS011;45649;53.014;6.600;2023-04-09T13:39:54;18.47;;;16.57;;
59770;SDS011;45649;53.014;6.600;2023-04-09T13:42:20;19.80;;;17.03;;
59770;SDS011;45649;53.014;6.600;2023-04-09T13:44:46;20.23;;;18.03;;
59770;SDS011;45649;53.014;6.600;2023-04-09T13:47:12;21.30;;;18.27;;
59770;SDS011;45649;53.014;6.600;2023-04-09T13:49:40;20.57;;;17.77;;
59770;SDS011;45649;53.014;6.600;2023-04-09T13:52:06;21.77;;;18.27;;
59770;SDS011;45649;53.014;6.600;2023-04-09T13:54:33;17.37;;;15.57;;
59770;SDS011;45649;53.014;6.600;2023-04-09T13:57:00;19.80;;;17.70;;
59770;SDS011;45649;53.014;6.600;2023-04-09T13:59:26;18.97;;;15.73;;
59770;SDS011;45649;53.014;6.600;2023-04-09T14:01:52;18.90;;;16.90;;
59770;SDS011;45649;53.014;6.600;2023-04-09T14:04:18;18.90;;;16.90;;
59770;SDS011;45649;53.014;6.600;2023-04-09T14:06:45;18.93;;;16.67;;
59770;SDS011;45649;53.014;6.600;2023-04-09T14:09:11;17.73;;;15.83;;
59770;SDS011;45649;53.014;6.600;2023-04-09T14:11:37;19.40;;;16.97;;
59770;SDS011;45649;53.014;6.600;2023-04-09T14:14:03;16.83;;;15.03;;
59770;SDS011;45649;53.014;6.600;2023-04-09T14:16:29;15.87;;;14.27;;
59770;SDS011;45649;53.014;6.600;2023-04-09T14:18:56;17.53;;;15.73;;
59770;SDS011;45649;53.014;6.600;2023-04-09T14:21:22;19.90;;;16.23;;
59770;SDS011;45649;53.014;6.600;2023-04-09T14:23:48;19.33;;;17.23;;
59770;SDS011;45649;53.014;6.600;2023-04-09T14:26:15;18.13;;;16.23;;
59770;SDS011;45649;53.014;6.600;2023-04-09T14:28:41;18.20;;;16.30;;
59770;SDS011;45649;53.014;6.600;2023-04-09T14:31:10;17.43;;;15.53;;
59770;SDS011;45649;53.014;6.600;2023-04-09T14:33:38;18.43;;;16.50;;
59770;SDS011;45649;53.014;6.600;2023-04-09T14:36:04;18.37;;;16.33;;
59770;SDS011;45649;53.014;6.600;2023-04-09T14:38:39;18.43;;;16.43;;
59770;SDS011;45649;53.014;6.600;2023-04-09T14:41:05;18.47;;;16.10;;
59770;SDS011;45649;53.014;6.600;2023-04-09T14:43:31;17.70;;;15.80;;
59770;SDS011;45649;53.014;6.600;2023-04-09T14:45:57;18.20;;;16.30;;